Time;durP1;ratioP1;P1;durP2;ratioP2;P2;SDS_P1;SDS_P2;PMS_P1;PMS_P2;Temp;Humidity;BMP_temperature;BMP_pressure;BME280_temperature;BME280_humidity;BME280_pressure;Samples;Min_cycle;Max_cycle;Signal;HPM_P1;HPM_P2
2023/10/30 00:01:16;;;;;;;0.10;0.10;;;;;;;14.34;56.72;101489.00;4734393;30;20417;-89
2023/10/30 00:03:41;;;;;;;0.10;0.10;;;;;;;14.36;56.55;101494.16;4735058;30;20484;-89
2023/10/30 00:06:07;;;;;;;0.10;0.10;;;;;;;14.44;56.36;101493.28;4734774;30;20492;-87
2023/10/30 00:08:33;;;;;;;0.10;0.10;;;;;;;14.50;55.99;101484.59;4748604;30;20409;-87
2023/10/30 00:10:58;;;;;;;0.10;0.10;;;;;;;14.49;56.02;101488.25;4734310;30;20425;-89
2023/10/30 00:13:24;;;;;;;0.10;0.10;;;;;;;14.26;56.24;101489.06;4734495;30;20938;-88
2023/10/30 00:15:50;;;;;;;0.00;0.00;;;;;;;14.08;56.89;101496.47;4733501;30;20421;-88
2023/10/30 00:18:16;;;;;;;0.10;0.10;;;;;;;13.94;57.22;101490.88;4732915;30;20418;-89
2023/10/30 00:20:41;;;;;;;0.10;0.10;;;;;;;13.85;57.64;101499.91;4734703;30;20975;-89
2023/10/30 00:23:07;;;;;;;0.10;0.10;;;;;;;13.84;57.70;101500.09;4753426;30;20433;-89
2023/10/30 00:25:33;;;;;;;0.00;0.00;;;;;;;13.48;58.60;101512.00;4733531;30;20902;-89
2023/10/30 00:28:02;;;;;;;0.10;0.10;;;;;;;13.36;58.84;101503.53;4733026;30;20409;-89
2023/10/30 00:30:29;;;;;;;0.10;0.10;;;;;;;13.40;59.06;101509.38;4732721;30;20417;-89
2023/10/30 00:32:55;;;;;;;0.30;0.30;;;;;;;13.41;58.87;101508.34;4732534;30;20433;-89
2023/10/30 00:35:21;;;;;;;0.30;0.30;;;;;;;13.30;59.58;101514.00;4732269;30;20543;-88
2023/10/30 00:37:46;;;;;;;0.60;0.30;;;;;;;13.30;59.17;101512.16;4732730;30;20479;-88
2023/10/30 00:40:12;;;;;;;0.20;0.20;;;;;;;13.38;59.34;101514.03;4732623;30;20449;-88
2023/10/30 00:42:38;;;;;;;0.00;0.00;;;;;;;13.42;59.28;101514.53;4733555;30;20413;-88
2023/10/30 00:45:04;;;;;;;0.20;0.20;;;;;;;13.42;59.35;101509.19;4732369;30;20421;-88
2023/10/30 00:47:38;;;;;;;0.10;0.10;;;;;;;13.50;59.08;101510.00;4731974;30;20486;-86
2023/10/30 00:50:05;;;;;;;0.10;0.10;;;;;;;13.47;59.00;101496.19;4732108;30;20421;-86
2023/10/30 00:52:30;;;;;;;0.10;0.10;;;;;;;13.53;58.85;101498.19;4732137;30;20498;-86
2023/10/30 00:54:58;;;;;;;0.10;0.10;;;;;;;13.53;58.81;101493.69;4732211;30;20501;-89
2023/10/30 00:57:24;;;;;;;0.10;0.10;;;;;;;13.66;58.44;101498.47;4733354;30;21247;-89
2023/10/30 00:59:50;;;;;;;0.10;0.10;;;;;;;13.79;58.20;101499.78;4732607;30;20449;-90
2023/10/30 01:02:16;;;;;;;0.10;0.10;;;;;;;13.78;58.10;101496.28;4732605;30;20420;-90
2023/10/30 01:04:41;;;;;;;0.10;0.10;;;;;;;13.52;58.74;101486.72;4733880;30;20490;-90
2023/10/30 01:07:08;;;;;;;0.37;0.37;;;;;;;13.45;59.06;101487.53;4732881;30;20421;-88
2023/10/30 01:09:33;;;;;;;0.10;0.10;;;;;;;13.49;58.99;101492.38;4746756;30;20427;-88
2023/10/30 01:11:59;;;;;;;0.10;0.10;;;;;;;13.58;58.67;101490.50;4746710;30;20433;-87
2023/10/30 01:14:25;;;;;;;0.20;0.20;;;;;;;13.60;58.69;101493.84;4731788;30;20909;-88
2023/10/30 01:16:51;;;;;;;0.15;0.15;;;;;;;13.60;58.63;101493.84;4732019;30;20507;-88
2023/10/30 01:19:17;;;;;;;0.17;0.17;;;;;;;13.56;58.43;101492.53;4731915;30;20501;-88
2023/10/30 01:21:43;;;;;;;0.17;0.17;;;;;;;13.41;59.01;101492.38;4731807;30;20417;-89
2023/10/30 01:24:09;;;;;;;0.10;0.10;;;;;;;13.38;59.11;101479.41;4731841;30;20433;-88
2023/10/30 01:26:35;;;;;;;0.20;0.20;;;;;;;13.29;58.96;101485.69;4731777;30;20421;-89
2023/10/30 01:29:01;;;;;;;0.20;0.20;;;;;;;13.28;58.84;101492.03;4731955;30;20424;-86
2023/10/30 01:31:29;;;;;;;0.10;0.10;;;;;;;13.17;59.25;101485.22;4731620;30;20513;-87
2023/10/30 01:33:55;;;;;;;0.20;0.20;;;;;;;13.00;59.63;101493.22;4746077;30;20978;-84
2023/10/30 01:36:21;;;;;;;0.13;0.13;;;;;;;12.90;59.92;101491.72;4732309;30;20417;-87
2023/10/30 01:38:46;;;;;;;0.20;0.20;;;;;;;12.80;59.97;101489.22;4731272;30;20409;-85
2023/10/30 01:41:12;;;;;;;0.10;0.10;;;;;;;12.83;59.65;101491.56;4732292;30;20436;-87
2023/10/30 01:43:37;;;;;;;0.10;0.10;;;;;;;12.86;59.71;101495.72;4730927;30;20754;-86
2023/10/30 01:46:03;;;;;;;0.10;0.10;;;;;;;12.92;59.73;101495.06;4730747;30;20421;-86
2023/10/30 01:48:32;;;;;;;0.10;0.10;;;;;;;12.97;59.42;101498.88;4731707;30;20440;-86
2023/10/30 01:50:59;;;;;;;0.10;0.10;;;;;;;13.01;59.35;101491.38;4730586;30;20872;-86
2023/10/30 01:53:27;;;;;;;0.10;0.10;;;;;;;13.01;59.09;101497.53;4730633;30;20429;-86
2023/10/30 01:55:55;;;;;;;0.30;0.13;;;;;;;12.85;59.33;101502.03;4744755;30;20902;-86
2023/10/30 01:58:22;;;;;;;0.70;0.60;;;;;;;12.69;60.10;101501.00;4746259;30;20430;-86
2023/10/30 02:00:50;;;;;;;0.10;0.10;;;;;;;12.92;59.32;101503.84;4733336;30;20508;-86
2023/10/30 02:03:16;;;;;;;0.10;0.10;;;;;;;12.95;59.22;101497.38;4732115;30;20481;-87
2023/10/30 02:05:42;;;;;;;0.20;0.20;;;;;;;13.09;58.60;101495.88;4749307;30;20940;-86
2023/10/30 02:08:09;;;;;;;0.10;0.10;;;;;;;13.16;58.40;101502.19;4732793;30;20411;-85
2023/10/30 02:10:35;;;;;;;0.10;0.10;;;;;;;13.13;58.39;101502.53;4733226;30;20415;-86
2023/10/30 02:13:07;;;;;;;0.10;0.10;;;;;;;13.15;58.30;101500.53;4733136;30;20439;-86
2023/10/30 02:15:33;;;;;;;0.32;0.32;;;;;;;13.04;58.45;101504.38;4733397;30;20440;-86
2023/10/30 02:17:59;;;;;;;0.43;0.43;;;;;;;12.77;59.04;101502.88;4749191;30;20423;-86
2023/10/30 02:20:25;;;;;;;0.30;0.30;;;;;;;12.76;59.38;101503.84;4748938;30;20525;-87
2023/10/30 02:22:51;;;;;;;0.10;0.10;;;;;;;12.80;59.22;101505.19;4733473;30;20412;-85
2023/10/30 02:25:22;;;;;;;0.07;0.07;;;;;;;12.96;58.76;101507.03;4733491;30;20759;-85
2023/10/30 02:27:52;;;;;;;0.10;0.10;;;;;;;12.89;58.38;101511.34;4733321;30;20419;-85
2023/10/30 02:30:18;;;;;;;0.20;0.20;;;;;;;12.80;59.07;101523.81;4744966;30;20418;-86
2023/10/30 02:32:44;;;;;;;0.10;0.10;;;;;;;12.75;59.19;101519.00;4729552;30;20432;-86
2023/10/30 02:35:19;;;;;;;0.20;0.20;;;;;;;12.61;59.68;101511.66;4749362;30;20414;-85
2023/10/30 02:37:46;;;;;;;0.10;0.10;;;;;;;12.66;59.51;101517.31;4733083;30;20506;-85
2023/10/30 02:40:12;;;;;;;0.10;0.10;;;;;;;12.69;59.13;101514.31;4749211;30;20411;-88
2023/10/30 02:42:38;;;;;;;0.10;0.10;;;;;;;12.68;59.53;101512.66;4733227;30;20842;-86
2023/10/30 02:45:04;;;;;;;0.15;0.15;;;;;;;12.80;59.35;101502.53;4749465;30;20423;-87
2023/10/30 02:47:31;;;;;;;0.10;0.10;;;;;;;12.88;58.99;101504.38;4733044;30;20831;-85
2023/10/30 02:49:56;;;;;;;0.10;0.10;;;;;;;12.93;58.77;101499.38;4733158;30;20487;-86
2023/10/30 02:52:22;;;;;;;0.10;0.10;;;;;;;12.97;58.49;101490.06;4732969;30;20463;-85
2023/10/30 02:54:48;;;;;;;0.23;0.23;;;;;;;12.97;58.25;101490.06;4748578;30;20462;-86
2023/10/30 02:57:13;;;;;;;0.10;0.10;;;;;;;12.97;58.47;101498.88;4732988;30;20420;-86
2023/10/30 02:59:43;;;;;;;0.40;0.40;;;;;;;12.97;58.83;101509.53;4748535;30;20953;-86
2023/10/30 03:02:08;;;;;;;0.10;0.10;;;;;;;12.88;58.57;101499.06;4748981;30;20408;-86
2023/10/30 03:04:34;;;;;;;0.13;0.13;;;;;;;12.85;58.67;101507.34;4751436;30;20415;-86
2023/10/30 03:07:00;;;;;;;0.10;0.10;;;;;;;12.82;58.76;101505.88;4750063;30;20415;-86
2023/10/30 03:09:26;;;;;;;0.30;0.30;;;;;;;12.83;58.61;101502.19;4749333;30;20411;-85
2023/10/30 03:11:52;;;;;;;0.10;0.10;;;;;;;12.80;58.46;101507.84;4723166;30;20432;-86
2023/10/30 03:14:17;;;;;;;0.10;0.10;;;;;;;12.60;59.29;101508.19;4733064;30;20430;-85
2023/10/30 03:16:43;;;;;;;0.20;0.20;;;;;;;12.65;58.97;101510.31;4732752;30;20429;-87
2023/10/30 03:19:09;;;;;;;0.20;0.20;;;;;;;12.74;58.84;101517.31;4733106;30;20853;-86
2023/10/30 03:21:35;;;;;;;0.10;0.10;;;;;;;12.73;58.75;101512.16;4736094;30;20412;-85
2023/10/30 03:24:00;;;;;;;0.10;0.10;;;;;;;12.76;58.68;101512.66;4751761;30;20442;-87
2023/10/30 03:26:26;;;;;;;0.10;0.10;;;;;;;12.85;58.16;101508.19;4736099;30;20796;-87
2023/10/30 03:28:51;;;;;;;0.20;0.20;;;;;;;12.81;57.92;101506.84;4736058;30;20485;-86
2023/10/30 03:31:17;;;;;;;0.10;0.10;;;;;;;12.63;58.28;101507.00;4735808;30;20446;-86
2023/10/30 03:33:42;;;;;;;0.10;0.10;;;;;;;12.55;58.27;101509.63;4735671;30;20424;-85
2023/10/30 03:36:08;;;;;;;0.10;0.10;;;;;;;12.66;58.12;101511.16;4751373;30;20413;-85
2023/10/30 03:38:34;;;;;;;0.10;0.10;;;;;;;12.75;57.84;101516.34;4735729;30;20419;-85
2023/10/30 03:41:00;;;;;;;0.10;0.10;;;;;;;12.72;57.75;101514.00;4735885;30;20407;-86
2023/10/30 03:43:25;;;;;;;0.10;0.10;;;;;;;12.76;57.44;101512.66;4735654;30;20408;-85
2023/10/30 03:45:52;;;;;;;0.10;0.10;;;;;;;12.71;57.54;101517.66;4751637;30;20502;-85
2023/10/30 03:48:20;;;;;;;0.10;0.10;;;;;;;12.48;58.00;101525.44;4735180;30;20815;-85
2023/10/30 03:50:48;;;;;;;0.10;0.10;;;;;;;12.26;58.58;101526.84;4735346;30;20403;-85
2023/10/30 03:53:14;;;;;;;0.10;0.10;;;;;;;12.05;58.97;101522.78;4735188;30;20427;-85
2023/10/30 03:55:39;;;;;;;0.10;0.10;;;;;;;12.03;59.14;101529.25;4751143;30;20492;-86
2023/10/30 03:58:05;;;;;;;0.10;0.10;;;;;;;12.20;58.47;101525.66;4751202;30;20791;-86
2023/10/30 04:00:30;;;;;;;0.10;0.10;;;;;;;12.29;58.40;101531.00;4734115;30;20423;-86
2023/10/30 04:02:56;;;;;;;0.10;0.10;;;;;;;12.30;58.00;101525.53;4734187;30;20407;-86
2023/10/30 04:05:22;;;;;;;0.10;0.10;;;;;;;12.32;57.77;101530.72;4734293;30;20498;-86
2023/10/30 04:07:47;;;;;;;0.10;0.10;;;;;;;12.32;57.83;101520.06;4734549;30;20411;-86
2023/10/30 04:10:13;;;;;;;0.30;0.30;;;;;;;12.29;57.98;101523.88;4735003;30;20461;-85
2023/10/30 04:12:38;;;;;;;0.10;0.10;;;;;;;12.37;57.70;101523.06;4735341;30;20519;-86
2023/10/30 04:15:05;;;;;;;0.10;0.10;;;;;;;12.40;57.31;101520.06;4734435;30;20419;-86
2023/10/30 04:17:30;;;;;;;0.10;0.10;;;;;;;12.36;57.27;101522.22;4734252;30;20455;-86
2023/10/30 04:19:56;;;;;;;0.10;0.10;;;;;;;12.17;57.46;101531.31;4735159;30;20435;-85
2023/10/30 04:22:22;;;;;;;0.10;0.10;;;;;;;12.10;57.66;101532.09;4748262;30;20419;-88
2023/10/30 04:24:48;;;;;;;0.10;0.10;;;;;;;12.00;57.79;101532.22;4749224;30;20419;-86
2023/10/30 04:27:13;;;;;;;0.10;0.10;;;;;;;11.91;58.02;101544.63;4748996;30;20416;-86
2023/10/30 04:29:41;;;;;;;0.10;0.10;;;;;;;11.53;59.23;101551.19;4746128;30;20421;-87
2023/10/30 04:32:07;;;;;;;0.90;0.20;;;;;;;11.42;59.76;101544.31;4746270;30;20522;-86
2023/10/30 04:34:32;;;;;;;0.10;0.10;;;;;;;11.35;59.82;101546.75;4752759;30;20435;-86
2023/10/30 04:36:58;;;;;;;0.10;0.10;;;;;;;11.26;60.12;101543.19;4736339;30;20407;-86
2023/10/30 04:39:24;;;;;;;0.10;0.10;;;;;;;11.22;60.46;101539.19;4762604;29;20475;-86
2023/10/30 04:41:50;;;;;;;0.20;0.20;;;;;;;11.45;59.69;101538.69;4758371;30;20408;-85
2023/10/30 04:44:16;;;;;;;0.10;0.10;;;;;;;11.70;58.73;101549.47;4750232;30;20407;-85
2023/10/30 04:46:42;;;;;;;0.10;0.10;;;;;;;11.67;58.64;101553.28;4737232;30;20409;-86
2023/10/30 04:49:07;;;;;;;0.10;0.10;;;;;;;11.69;58.65;101556.63;4731127;30;20469;-85
2023/10/30 04:51:33;;;;;;;0.20;0.20;;;;;;;11.71;58.50;101561.78;4730867;30;20556;-85
2023/10/30 04:53:59;;;;;;;0.10;0.10;;;;;;;11.69;58.46;101561.91;4731036;30;20480;-86
2023/10/30 04:56:24;;;;;;;0.10;0.10;;;;;;;11.53;59.02;101565.28;4728031;30;20522;-86
2023/10/30 05:01:10;;;;;;;0.10;0.10;;;;;;;11.54;58.81;101568.78;5067327;28;20395;-89
2023/10/30 05:03:52;;;;;;;0.13;0.13;;;;;;;11.48;58.97;101563.09;5054547;28;20436;-87
2023/10/30 05:06:18;;;;;;;0.20;0.20;;;;;;;11.55;58.63;101575.78;5068188;28;20448;-88
2023/10/30 05:08:46;;;;;;;0.32;0.32;;;;;;;11.52;58.70;101579.53;5075225;28;20467;-89
2023/10/30 05:11:11;;;;;;;0.60;0.60;;;;;;;11.53;58.93;101583.88;5044823;28;20982;-89
2023/10/30 05:13:37;;;;;;;0.13;0.13;;;;;;;11.49;58.65;101590.50;5046847;28;20409;-91
2023/10/30 05:16:03;;;;;;;0.10;0.10;;;;;;;11.40;59.11;101583.47;5077535;28;20911;-89
2023/10/30 05:18:30;;;;;;;0.90;0.90;;;;;;;11.29;59.33;101590.69;5036934;28;20425;-88
2023/10/30 05:20:56;;;;;;;0.20;0.20;;;;;;;11.34;59.21;101590.19;5042762;28;20394;-91
2023/10/30 05:23:22;;;;;;;0.25;0.25;;;;;;;11.19;60.26;101594.41;5040452;28;20466;-89
2023/10/30 05:25:47;;;;;;;0.10;0.10;;;;;;;11.29;59.65;101584.53;5063338;28;20485;-92
2023/10/30 05:28:13;;;;;;;0.15;0.15;;;;;;;11.38;59.43;101588.94;5051786;28;20458;-92
2023/10/30 05:30:39;;;;;;;0.20;0.20;;;;;;;11.41;59.54;101585.94;5049749;28;20381;-89
2023/10/30 05:33:04;;;;;;;0.20;0.20;;;;;;;11.36;59.86;101592.69;5028196;28;20849;-89
2023/10/30 05:35:31;;;;;;;0.13;0.13;;;;;;;11.42;59.83;101606.19;5069064;28;20486;-89
2023/10/30 05:37:56;;;;;;;0.20;0.20;;;;;;;11.46;59.87;101593.47;5057737;28;20493;-90
2023/10/30 05:40:22;;;;;;;0.10;0.10;;;;;;;11.55;59.48;101594.34;5069603;28;20404;-90
2023/10/30 05:42:48;;;;;;;0.20;0.20;;;;;;;11.72;59.49;101601.47;5071711;28;20392;-90
2023/10/30 05:45:15;;;;;;;0.80;0.20;;;;;;;11.92;58.76;101611.88;5072390;28;20811;-90
2023/10/30 05:47:42;;;;;;;0.10;0.10;;;;;;;11.95;58.35;101601.78;5079272;28;20418;-88
2023/10/30 05:50:11;;;;;;;0.30;0.20;;;;;;;11.85;59.12;101598.38;5092433;28;20396;-88
2023/10/30 05:52:39;;;;;;;0.20;0.20;;;;;;;12.00;58.67;101594.19;5090233;28;20403;-87
2023/10/30 05:55:08;;;;;;;0.10;0.10;;;;;;;12.12;58.65;101589.44;5082930;28;20391;-89
2023/10/30 05:57:34;;;;;;;0.20;0.20;;;;;;;12.31;58.29;101601.63;5076441;28;20415;-89
2023/10/30 06:00:00;;;;;;;1.70;0.30;;;;;;;12.47;57.99;101608.03;5084173;28;20442;-90
2023/10/30 06:02:32;;;;;;;0.25;0.25;;;;;;;12.59;57.74;101599.59;5055920;28;20390;-88
2023/10/30 06:04:57;;;;;;;0.10;0.10;;;;;;;12.68;57.67;101592.47;5071166;28;20849;-86
2023/10/30 06:07:26;;;;;;;0.10;0.10;;;;;;;12.79;57.49;101599.31;5068258;28;20410;-88
2023/10/30 06:09:56;;;;;;;0.20;0.20;;;;;;;12.78;57.57;101605.63;5088118;28;20379;-87
2023/10/30 06:12:26;;;;;;;0.10;0.10;;;;;;;12.86;57.76;101600.31;5057427;28;20391;-89
2023/10/30 06:14:52;;;;;;;0.20;0.20;;;;;;;12.92;57.57;101596.19;5057317;28;20379;-87
2023/10/30 06:17:21;;;;;;;0.10;0.10;;;;;;;12.95;57.39;101602.00;5056404;28;20839;-90
2023/10/30 06:19:46;;;;;;;0.40;0.40;;;;;;;12.93;57.96;101598.69;5056801;28;20398;-87
2023/10/30 06:22:12;;;;;;;0.30;0.30;;;;;;;13.10;57.66;101599.53;5056812;28;20771;-87
2023/10/30 06:24:38;;;;;;;0.20;0.20;;;;;;;13.20;57.17;101600.22;5056829;28;20379;-87
2023/10/30 06:27:03;;;;;;;0.65;0.65;;;;;;;13.24;57.37;101605.22;5057066;28;20986;-88
2023/10/30 06:29:29;;;;;;;0.60;0.60;;;;;;;13.25;57.75;101606.84;5057344;28;20732;-88
2023/10/30 06:31:55;;;;;;;0.93;0.57;;;;;;;13.31;57.61;101603.56;5057798;28;20411;-88
2023/10/30 06:34:20;;;;;;;0.30;0.30;;;;;;;13.41;57.43;101608.72;5058446;28;20383;-86
2023/10/30 06:36:46;;;;;;;0.40;0.40;;;;;;;13.49;57.70;101614.06;5057975;28;20435;-88
2023/10/30 06:39:13;;;;;;;0.45;0.45;;;;;;;13.52;57.39;101619.03;5057426;28;20901;-88
2023/10/30 06:41:43;;;;;;;0.20;0.20;;;;;;;13.64;57.45;101622.22;5078720;28;20384;-87
2023/10/30 06:44:12;;;;;;;0.30;0.30;;;;;;;13.57;57.31;101616.72;5077967;28;20375;-89
2023/10/30 06:46:37;;;;;;;1.10;0.35;;;;;;;13.57;57.80;101624.69;5058661;28;20448;-89
2023/10/30 06:49:08;;;;;;;0.40;0.40;;;;;;;13.58;57.53;101629.88;5074740;28;20383;-87
2023/10/30 06:51:33;;;;;;;0.20;0.20;;;;;;;13.69;57.68;101635.88;5065317;28;20901;-86
2023/10/30 06:53:59;;;;;;;0.30;0.30;;;;;;;13.70;57.67;101626.84;5061917;28;20398;-89
2023/10/30 06:56:28;;;;;;;0.30;0.30;;;;;;;13.79;57.49;101636.50;5062987;28;20398;-89
2023/10/30 06:58:57;;;;;;;0.10;0.10;;;;;;;13.83;57.44;101615.66;5080461;28;20402;-90
2023/10/30 07:01:27;;;;;;;0.20;0.20;;;;;;;13.91;57.23;101627.16;5081077;28;20467;-89
2023/10/30 07:03:53;;;;;;;0.30;0.30;;;;;;;14.03;57.28;101627.66;5097468;28;20398;-88
2023/10/30 07:06:20;;;;;;;0.17;0.17;;;;;;;14.02;57.02;101628.63;5089381;28;20399;-89
2023/10/30 07:08:45;;;;;;;0.10;0.10;;;;;;;14.06;57.22;101635.31;5060856;28;20402;-89
2023/10/30 07:11:12;;;;;;;0.30;0.30;;;;;;;14.18;57.17;101629.59;5079004;28;20383;-90
2023/10/30 07:13:38;;;;;;;0.10;0.10;;;;;;;14.37;56.63;101626.53;5076376;28;20440;-87
2023/10/30 07:16:07;;;;;;;0.10;0.10;;;;;;;14.45;56.58;101626.50;5058258;28;20395;-89
2023/10/30 07:18:33;;;;;;;0.10;0.10;;;;;;;14.44;56.78;101627.53;5042029;28;20467;-87
2023/10/30 07:21:00;;;;;;;0.20;0.20;;;;;;;14.50;56.45;101624.16;5060645;28;21049;-86
2023/10/30 07:23:27;;;;;;;0.20;0.20;;;;;;;14.64;56.53;101617.28;5057528;28;20395;-90
2023/10/30 07:25:53;;;;;;;0.15;0.15;;;;;;;14.72;56.69;101625.22;5059026;28;21096;-89
2023/10/30 07:28:18;;;;;;;0.10;0.10;;;;;;;14.70;56.47;101619.25;5059358;28;20387;-88
2023/10/30 07:30:44;;;;;;;0.10;0.10;;;;;;;14.63;56.91;101615.59;5061112;28;20428;-90
2023/10/30 07:33:10;;;;;;;0.10;0.10;;;;;;;14.70;56.72;101613.91;5062780;28;20481;-86
2023/10/30 07:35:36;;;;;;;0.10;0.10;;;;;;;14.87;56.51;101617.34;5060875;28;20863;-87
2023/10/30 07:38:04;;;;;;;0.10;0.10;;;;;;;14.98;56.52;101621.44;5060988;28;20409;-90
2023/10/30 07:40:30;;;;;;;0.20;0.20;;;;;;;15.02;56.38;101614.72;5058934;28;20414;-90
2023/10/30 07:42:56;;;;;;;0.10;0.10;;;;;;;15.09;56.52;101614.84;5060363;28;20387;-89
2023/10/30 07:45:25;;;;;;;0.10;0.10;;;;;;;15.03;56.50;101621.72;5060618;28;20382;-88
2023/10/30 07:47:55;;;;;;;0.15;0.15;;;;;;;15.25;56.27;101619.22;5061395;28;20390;-89
2023/10/30 07:50:21;;;;;;;0.10;0.10;;;;;;;15.34;56.23;101614.66;5044971;28;20485;-89
2023/10/30 07:52:46;;;;;;;0.10;0.10;;;;;;;15.32;56.17;101604.13;5061110;28;20486;-90
2023/10/30 07:55:12;;;;;;;0.10;0.10;;;;;;;15.53;56.02;101624.84;5065441;28;20391;-91
2023/10/30 07:57:38;;;;;;;0.17;0.17;;;;;;;15.61;55.86;101614.09;5062484;28;20383;-89
2023/10/30 08:00:08;;;;;;;0.20;0.20;;;;;;;15.71;55.60;101611.16;5060137;28;20414;-88
2023/10/30 08:02:34;;;;;;;0.10;0.10;;;;;;;15.76;55.74;101616.00;5061114;28;20869;-89
2023/10/30 08:04:59;;;;;;;0.20;0.20;;;;;;;15.88;55.48;101617.19;5049486;28;20391;-89
2023/10/30 08:07:35;;;;;;;0.10;0.10;;;;;;;15.87;55.65;101612.88;5063119;28;20406;-87
2023/10/30 08:10:01;;;;;;;1.60;0.50;;;;;;;16.01;55.56;101611.22;5049611;28;20410;-87
2023/10/30 08:12:27;;;;;;;0.10;0.10;;;;;;;16.18;55.43;101617.22;5055495;28;20975;-87
2023/10/30 08:14:54;;;;;;;0.25;0.25;;;;;;;16.23;55.61;101622.84;5056914;28;20456;-85
2023/10/30 08:17:20;;;;;;;0.75;0.13;;;;;;;16.20;55.58;101621.34;5056292;28;20368;-87
2023/10/30 08:19:47;;;;;;;0.10;0.10;;;;;;;16.23;55.66;101612.97;5056257;28;20399;-88
2023/10/30 08:22:17;;;;;;;0.20;0.20;;;;;;;16.31;55.47;101614.72;5058312;28;20695;-88
2023/10/30 08:24:44;;;;;;;0.30;0.30;;;;;;;16.37;55.70;101615.84;5043054;28;20909;-86
2023/10/30 08:27:10;;;;;;;0.20;0.20;;;;;;;16.45;55.47;101613.03;5057797;28;20890;-85
2023/10/30 08:29:36;;;;;;;0.10;0.10;;;;;;;16.46;55.36;101614.72;5057501;28;20445;-86
2023/10/30 08:32:01;;;;;;;0.13;0.13;;;;;;;16.50;55.34;101613.31;5058263;28;20796;-87
2023/10/30 08:34:30;;;;;;;2.30;0.60;;;;;;;16.63;55.62;101615.31;5057690;28;20382;-87
2023/10/30 08:36:55;;;;;;;0.17;0.17;;;;;;;16.68;55.37;101602.19;5057525;28;20445;-85
2023/10/30 08:39:21;;;;;;;0.37;0.37;;;;;;;16.69;55.34;101597.66;5058190;28;20808;-87
2023/10/30 08:41:54;;;;;;;0.35;0.35;;;;;;;16.79;55.33;101604.38;5057620;28;20405;-90
2023/10/30 08:44:22;;;;;;;0.10;0.10;;;;;;;16.94;55.37;101601.72;5061460;28;20900;-89
2023/10/30 08:46:48;;;;;;;0.40;0.40;;;;;;;16.98;55.17;101602.97;5054867;28;20401;-86
2023/10/30 08:49:14;;;;;;;0.10;0.10;;;;;;;17.04;55.04;101608.59;5071992;28;20454;-88
2023/10/30 08:51:47;;;;;;;0.08;0.08;;;;;;;17.08;55.04;101591.94;5072492;28;20398;-85
2023/10/30 08:54:13;;;;;;;0.20;0.20;;;;;;;17.14;54.84;101599.22;5053492;28;20395;-85
2023/10/30 08:56:42;;;;;;;0.13;0.13;;;;;;;17.23;54.49;101588.34;5057425;28;20928;-88
2023/10/30 08:59:12;;;;;;;0.13;0.13;;;;;;;17.33;54.70;101594.22;5088760;28;20514;-89
2023/10/30 09:01:44;;;;;;;0.40;0.40;;;;;;;17.29;54.87;101572.34;5081572;28;20884;-91
2023/10/30 09:04:12;;;;;;;0.20;0.20;;;;;;;17.51;54.50;101588.38;5064801;28;20382;-88
2023/10/30 09:06:38;;;;;;;0.10;0.10;;;;;;;17.53;54.46;101578.28;5025288;28;20395;-88
2023/10/30 09:09:05;;;;;;;0.10;0.10;;;;;;;17.55;54.42;101578.94;5071024;28;20401;-89
2023/10/30 09:16:42;;;;;;;0.20;0.20;;;;;;;17.73;54.25;101581.13;4974094;28;20447;-90
2023/10/30 09:19:10;;;;;;;0.30;0.30;;;;;;;17.75;54.07;101569.19;4986181;28;20415;-91
2023/10/30 09:21:40;;;;;;;0.40;0.40;;;;;;;17.69;54.14;101563.78;4981549;28;20407;-89
2023/10/30 09:24:09;;;;;;;0.30;0.30;;;;;;;17.86;53.92;101575.88;4973214;28;20442;-89
2023/10/30 09:26:35;;;;;;;0.40;0.40;;;;;;;17.96;53.76;101575.50;4959783;28;20964;-88
2023/10/30 09:29:00;;;;;;;0.20;0.20;;;;;;;18.02;53.76;101571.22;4973000;28;20383;-89
2023/10/30 09:31:33;;;;;;;0.40;0.40;;;;;;;18.03;53.53;101565.66;4978873;28;20909;-89
2023/10/30 09:34:11;;;;;;;;;;;;;;;;;;;;;
2023/10/30 09:36:41;;;;;;;0.10;0.10;;;;;;;18.19;53.19;101555.63;4981491;28;20510;-93
2023/10/30 09:39:13;;;;;;;0.10;0.10;;;;;;;18.28;53.34;101565.97;4979858;28;20427;-89
2023/10/30 09:41:47;;;;;;;0.10;0.10;;;;;;;18.32;53.35;101564.53;4987939;28;20391;-93
2023/10/30 09:44:24;;;;;;;0.15;0.15;;;;;;;18.47;52.85;101564.38;4983767;28;20383;-95
2023/10/30 10:25:11;;;;;;;0.20;0.20;;;;;;;19.06;51.39;101501.06;4998503;28;20431;-91
2023/10/30 10:27:44;;;;;;;0.20;0.20;;;;;;;19.14;51.53;101504.59;4968138;28;20447;-85
2023/10/30 10:30:10;;;;;;;0.20;0.20;;;;;;;19.21;51.22;101497.34;4973713;28;20401;-87
2023/10/30 10:32:37;;;;;;;0.45;0.35;;;;;;;19.27;51.13;101494.66;4968510;28;20916;-87
2023/10/30 10:35:05;;;;;;;0.10;0.10;;;;;;;19.34;50.78;101491.97;4967045;28;20428;-88
2023/10/30 10:37:32;;;;;;;0.20;0.20;;;;;;;19.43;50.89;101489.88;4978903;28;20916;-87
2023/10/30 10:39:58;;;;;;;0.60;0.40;;;;;;;19.42;50.95;101485.53;4983169;28;20405;-89
2023/10/30 10:42:25;;;;;;;0.77;0.43;;;;;;;19.47;51.00;101483.06;4975989;28;20397;-89
2023/10/30 10:44:55;;;;;;;0.20;0.20;;;;;;;19.42;51.01;101475.59;4947634;28;20432;-87
2023/10/30 10:47:23;;;;;;;0.20;0.20;;;;;;;19.56;50.99;101472.91;4962538;28;20400;-87
2023/10/30 10:49:50;;;;;;;0.10;0.10;;;;;;;19.63;50.79;101479.09;4965626;28;20395;-87
2023/10/30 10:52:18;;;;;;;0.20;0.20;;;;;;;19.68;50.79;101473.91;4976651;28;20400;-87
2023/10/30 10:54:53;;;;;;;0.10;0.10;;;;;;;19.85;50.46;101463.50;4975501;28;20412;-86
2023/10/30 10:57:20;;;;;;;0.67;0.67;;;;;;;19.94;50.33;101466.78;4965535;28;20397;-86
2023/10/30 10:59:47;;;;;;;0.10;0.10;;;;;;;19.90;50.35;101455.63;4964172;28;20414;-87
2023/10/30 11:02:28;;;;;;;0.10;0.10;;;;;;;19.79;50.40;101450.91;4965052;28;20777;-89
2023/10/30 11:04:55;;;;;;;0.10;0.10;;;;;;;19.83;50.30;101444.88;4969998;28;20423;-88
2023/10/30 11:07:50;;;;;;;0.17;0.17;;;;;;;20.00;49.83;101436.31;5012240;28;20456;-87
2023/10/30 11:10:42;;;;;;;0.50;0.50;;;;;;;20.04;49.44;101435.69;4969595;28;20423;-86
2023/10/30 11:13:44;;;;;;;0.10;0.10;;;;;;;20.14;49.50;101440.59;4970396;28;20782;-85
2023/10/30 11:16:15;;;;;;;0.10;0.10;;;;;;;20.08;49.20;101436.09;4970889;28;20903;-88
2023/10/30 11:18:42;;;;;;;0.40;0.40;;;;;;;20.21;48.36;101443.25;4972179;28;20444;-88
2023/10/30 11:21:16;;;;;;;0.10;0.10;;;;;;;20.12;48.48;101442.69;4961980;28;20402;-87
2023/10/30 11:23:52;;;;;;;0.60;0.60;;;;;;;20.15;47.87;101439.56;4976440;28;20442;-89
2023/10/30 11:26:30;;;;;;;0.20;0.20;;;;;;;20.24;47.96;101432.88;4966864;28;20397;-88
2023/10/30 11:29:01;;;;;;;0.10;0.10;;;;;;;20.39;47.89;101424.47;4979469;28;20491;-89
2023/10/30 11:31:49;;;;;;;0.30;0.30;;;;;;;20.41;47.37;101424.28;4968414;28;20450;-88
2023/10/30 11:34:20;;;;;;;0.50;0.50;;;;;;;20.44;47.22;101416.59;4962518;28;20395;-88
2023/10/30 11:36:51;;;;;;;0.30;0.30;;;;;;;20.51;47.21;101407.63;4984628;28;20426;-89
2023/10/30 11:39:21;;;;;;;0.10;0.10;;;;;;;20.68;47.04;101413.34;4956097;28;21335;-89
2023/10/30 11:41:53;;;;;;;0.25;0.25;;;;;;;20.73;46.80;101410.81;4966443;28;20802;-89
2023/10/30 11:44:21;;;;;;;0.20;0.20;;;;;;;20.71;46.75;101388.66;4983882;28;20391;-90
2023/10/30 11:46:54;;;;;;;0.20;0.20;;;;;;;20.75;46.40;101396.06;4958547;28;20390;-87
2023/10/30 11:49:21;;;;;;;0.10;0.10;;;;;;;20.87;46.40;101393.47;4994163;28;20477;-89
2023/10/30 11:51:51;;;;;;;0.00;0.00;;;;;;;20.95;46.25;101385.09;4991378;28;20455;-88
2023/10/30 11:54:33;;;;;;;0.20;0.20;;;;;;;20.90;46.29;101381.41;4977180;28;20465;-89
2023/10/30 11:57:05;;;;;;;0.20;0.10;;;;;;;20.90;46.39;101376.84;4974882;28;20428;-86
2023/10/30 11:59:30;;;;;;;0.20;0.20;;;;;;;21.05;46.34;101371.09;4961769;28;20482;-85
2023/10/30 12:02:05;;;;;;;0.80;0.60;;;;;;;21.06;46.33;101369.22;4965597;28;20436;-85
2023/10/30 12:04:45;;;;;;;1.00;0.50;;;;;;;20.98;45.49;101362.28;4954322;28;20460;-85
2023/10/30 12:07:14;;;;;;;0.17;0.17;;;;;;;21.14;45.67;101361.66;4982332;28;20386;-86
2023/10/30 12:09:39;;;;;;;0.32;0.32;;;;;;;21.18;45.40;101349.38;4960136;28;20395;-88
2023/10/30 12:12:11;;;;;;;0.50;0.50;;;;;;;21.23;45.24;101361.34;4954594;28;20432;-87
2023/10/30 12:14:38;;;;;;;0.35;0.35;;;;;;;21.30;45.49;101349.47;4947738;28;20400;-87